createdAt,value
2018-03-06T00:00:19.083Z,58.66
2018-03-06T00:02:45.352Z,58.51
2018-03-06T00:05:11.604Z,58.62
2018-03-06T00:07:37.920Z,58.68
2018-03-06T00:10:04.252Z,59.55
2018-03-06T00:12:30.616Z,59.79
2018-03-06T00:14:56.918Z,59.83
2018-03-06T00:17:23.220Z,59.80
2018-03-06T00:19:49.484Z,59.71
2018-03-06T00:22:15.800Z,59.62
2018-03-06T00:24:42.133Z,59.54
2018-03-06T00:27:08.442Z,59.52
2018-03-06T00:29:35.479Z,59.47
2018-03-06T00:32:02.564Z,59.72
2018-03-06T00:34:28.869Z,59.85
2018-03-06T00:36:55.097Z,59.96
2018-03-06T00:39:21.387Z,59.87
2018-03-06T00:41:47.697Z,59.70
2018-03-06T00:44:13.978Z,59.93
2018-03-06T00:46:40.960Z,59.96
2018-03-06T00:49:07.262Z,60.14
2018-03-06T00:51:34.291Z,60.43
2018-03-06T00:54:00.537Z,60.13
2018-03-06T00:56:27.596Z,59.80
2018-03-06T00:58:54.651Z,60.11
2018-03-06T01:01:20.946Z,60.23
2018-03-06T01:03:47.219Z,60.41
2018-03-06T01:06:13.532Z,60.36
2018-03-06T01:08:39.788Z,60.27
2018-03-06T01:11:06.016Z,60.47
2018-03-06T01:13:32.276Z,60.55
2018-03-06T01:15:58.534Z,60.65
2018-03-06T01:18:25.555Z,60.54
2018-03-06T01:20:51.821Z,60.92
2018-03-06T01:23:18.813Z,60.93
2018-03-06T01:25:45.083Z,60.61
2018-03-06T01:28:12.089Z,60.63
2018-03-06T01:30:38.366Z,60.72
2018-03-06T01:33:05.379Z,60.99
2018-03-06T01:35:38.619Z,61.24
2018-03-06T01:38:04.900Z,61.36
2018-03-06T01:40:31.212Z,61.36
2018-03-06T01:42:57.486Z,61.87
2018-03-06T01:45:23.724Z,61.94
2018-03-06T01:47:50.785Z,61.60
2018-03-06T01:50:17.786Z,61.73
2018-03-06T01:52:44.064Z,61.63
2018-03-06T01:55:10.372Z,61.83
2018-03-06T01:57:37.420Z,61.64
2018-03-06T02:00:04.419Z,62.57
2018-03-06T02:02:30.774Z,62.61
2018-03-06T02:04:57.051Z,62.61
2018-03-06T02:07:24.083Z,62.31
2018-03-06T02:09:51.147Z,62.13
2018-03-06T02:12:17.452Z,61.89
2018-03-06T02:14:43.785Z,62.24
2018-03-06T02:17:10.017Z,62.43
2018-03-06T02:19:37.060Z,62.67
2018-03-06T02:22:03.392Z,62.41
2018-03-06T02:24:29.712Z,62.54
2018-03-06T02:26:56.020Z,62.32
2018-03-06T02:29:22.324Z,62.03
2018-03-06T02:31:48.614Z,61.57
2018-03-06T02:34:14.872Z,62.37
2018-03-06T02:36:41.179Z,62.42
2018-03-06T02:39:08.250Z,62.26
2018-03-06T02:41:34.561Z,62.06
2018-03-06T02:44:01.625Z,62.12
2018-03-06T02:46:28.642Z,61.97
2018-03-06T02:48:55.001Z,62.23
2018-03-06T02:51:22.012Z,62.26
2018-03-06T02:53:50.097Z,62.37
2018-03-06T02:56:16.360Z,62.38
2018-03-06T02:58:42.607Z,62.49
2018-03-06T03:01:08.928Z,62.02
2018-03-06T03:03:35.172Z,62.76
2018-03-06T03:06:01.448Z,62.63
2018-03-06T03:08:27.688Z,63.18
2018-03-06T03:10:54.698Z,63.60
2018-03-06T03:13:20.948Z,63.73
2018-03-06T03:15:47.200Z,63.41
2018-03-06T03:18:14.200Z,62.92
2018-03-06T03:20:40.526Z,63.18
2018-03-06T03:23:06.773Z,62.78
2018-03-06T03:25:33.044Z,62.87
2018-03-06T03:27:59.317Z,63.25
2018-03-06T03:30:25.585Z,63.50
2018-03-06T03:32:51.822Z,63.47
2018-03-06T03:35:18.861Z,63.54
2018-03-06T03:37:45.165Z,63.38
2018-03-06T03:40:11.431Z,63.73
2018-03-06T03:42:38.447Z,63.25
2018-03-06T03:45:04.719Z,63.19
2018-03-06T03:47:31.763Z,63.03
2018-03-06T03:49:58.752Z,62.91
2018-03-06T03:52:25.008Z,63.09
2018-03-06T03:54:51.272Z,62.73
2018-03-06T03:57:18.276Z,62.46
2018-03-06T03:59:44.516Z,62.36
2018-03-06T04:02:10.778Z,62.48
2018-03-06T04:04:37.784Z,62.42
2018-03-06T04:07:04.045Z,62.69
2018-03-06T04:09:31.044Z,62.53
2018-03-06T04:12:04.154Z,62.37
2018-03-06T04:14:30.437Z,62.28
2018-03-06T04:16:56.702Z,61.98
2018-03-06T04:19:23.040Z,61.76
2018-03-06T04:21:49.440Z,61.87
2018-03-06T04:24:15.731Z,61.85
2018-03-06T04:26:42.717Z,61.53
2018-03-06T04:29:08.975Z,61.73
2018-03-06T04:31:35.232Z,62.40
2018-03-06T04:34:01.652Z,62.40
2018-03-06T04:36:27.964Z,62.30
2018-03-06T04:38:54.304Z,62.25
2018-03-06T04:41:20.564Z,62.26
2018-03-06T04:43:47.647Z,62.29
2018-03-06T04:46:14.001Z,62.06
2018-03-06T04:48:40.261Z,61.97
2018-03-06T04:51:06.648Z,61.47
2018-03-06T04:53:32.906Z,61.66
2018-03-06T04:55:59.196Z,61.21
2018-03-06T04:58:25.459Z,61.03
2018-03-06T05:00:51.755Z,60.99
2018-03-06T05:03:18.117Z,60.68
2018-03-06T05:05:45.199Z,60.59
2018-03-06T05:08:12.249Z,60.54
2018-03-06T05:10:39.270Z,60.15
2018-03-06T05:13:05.548Z,60.32
2018-03-06T05:15:31.810Z,59.98
2018-03-06T05:17:58.084Z,60.11
2018-03-06T05:20:25.086Z,60.00
2018-03-06T05:22:51.351Z,59.79
2018-03-06T05:25:17.644Z,59.63
2018-03-06T05:27:43.896Z,59.69
2018-03-06T05:30:10.190Z,59.83
2018-03-06T05:32:36.457Z,59.92
2018-03-06T05:35:02.727Z,60.47
2018-03-06T05:37:29.708Z,60.30
2018-03-06T05:39:55.982Z,60.70
2018-03-06T05:42:22.984Z,60.62
2018-03-06T05:44:49.257Z,61.00
2018-03-06T05:47:16.312Z,61.14
2018-03-06T05:49:42.579Z,61.70
2018-03-06T05:52:08.830Z,61.31
2018-03-06T05:54:35.132Z,60.94
2018-03-06T05:57:01.397Z,60.60
2018-03-06T05:59:28.425Z,60.83
2018-03-06T06:01:54.692Z,60.41
2018-03-06T06:04:20.981Z,60.36
2018-03-06T06:06:47.247Z,60.58
2018-03-06T06:09:13.519Z,60.53
2018-03-06T06:11:39.790Z,59.82
2018-03-06T06:14:06.083Z,59.65
2018-03-06T06:16:33.132Z,59.50
2018-03-06T06:19:00.180Z,59.13
2018-03-06T06:21:27.204Z,58.94
2018-03-06T06:23:53.486Z,58.92
2018-03-06T06:26:19.756Z,59.03
2018-03-06T06:28:46.062Z,58.76
2018-03-06T06:31:12.340Z,58.30
2018-03-06T06:33:39.370Z,58.23
2018-03-06T06:36:05.647Z,57.72
2018-03-06T06:38:31.955Z,57.02
2018-03-06T06:40:59.024Z,57.15
2018-03-06T06:43:25.381Z,57.01
2018-03-06T06:45:51.689Z,57.04
2018-03-06T06:48:17.966Z,57.08
2018-03-06T06:50:44.235Z,56.72
2018-03-06T06:53:11.232Z,56.04
2018-03-06T06:55:37.544Z,55.86
2018-03-06T06:58:03.819Z,55.60
2018-03-06T07:00:30.107Z,55.21
2018-03-06T07:02:56.400Z,55.39
2018-03-06T07:05:23.397Z,54.75
2018-03-06T07:07:49.656Z,54.63
2018-03-06T07:10:15.943Z,54.72
2018-03-06T07:12:42.912Z,54.38
2018-03-06T07:15:09.158Z,54.05
2018-03-06T07:17:35.463Z,53.90
2018-03-06T07:20:01.725Z,54.18
2018-03-06T07:22:28.750Z,53.75
2018-03-06T07:24:55.005Z,53.72
2018-03-06T07:27:22.020Z,53.77
2018-03-06T07:29:48.295Z,53.46
2018-03-06T07:32:15.308Z,53.26
2018-03-06T07:34:41.593Z,53.15
2018-03-06T07:37:07.861Z,52.96
2018-03-06T07:39:34.142Z,52.39
2018-03-06T07:42:00.415Z,51.73
2018-03-06T07:44:26.684Z,51.91
2018-03-06T07:46:53.690Z,51.42
2018-03-06T07:49:19.933Z,51.87
2018-03-06T07:51:46.205Z,51.61
2018-03-06T07:54:12.479Z,51.05
2018-03-06T07:56:38.777Z,50.77
2018-03-06T07:59:05.048Z,51.17
2018-03-06T08:01:31.345Z,51.79
2018-03-06T08:03:57.663Z,51.55
2018-03-06T08:06:23.939Z,50.77
2018-03-06T08:08:50.250Z,50.14
2018-03-06T08:11:16.476Z,50.38
2018-03-06T08:13:42.772Z,50.74
2018-03-06T08:16:09.020Z,51.27
2018-03-06T08:18:35.314Z,50.39
2018-03-06T08:21:02.304Z,50.15
2018-03-06T08:23:28.656Z,49.48
2018-03-06T08:25:54.918Z,48.90
2018-03-06T08:28:21.197Z,49.12
2018-03-06T08:30:47.682Z,49.56
2018-03-06T08:33:14.693Z,49.63
2018-03-06T08:35:40.972Z,49.16
2018-03-06T08:38:07.969Z,48.75
2018-03-06T08:40:35.015Z,49.19
2018-03-06T08:43:01.318Z,49.52
2018-03-06T08:45:27.569Z,49.91
2018-03-06T08:47:53.841Z,49.45
2018-03-06T08:50:20.103Z,49.71
2018-03-06T08:52:46.410Z,49.09
2018-03-06T08:55:13.417Z,48.61
2018-03-06T08:57:39.699Z,48.22
2018-03-06T09:00:05.981Z,48.10
2018-03-06T09:02:32.275Z,49.27
2018-03-06T09:04:58.555Z,49.91
2018-03-06T09:07:24.823Z,51.28
2018-03-06T09:09:51.131Z,52.10
2018-03-06T09:12:17.397Z,51.95
2018-03-06T09:14:43.698Z,53.04
2018-03-06T09:17:09.961Z,54.10
2018-03-06T09:19:36.224Z,54.38
2018-03-06T09:22:02.484Z,54.94
2018-03-06T09:24:28.865Z,55.18
2018-03-06T09:26:55.105Z,54.37
2018-03-06T09:29:21.374Z,55.03
2018-03-06T09:31:47.639Z,54.29
2018-03-06T09:34:13.951Z,54.49
2018-03-06T09:36:40.981Z,54.10
2018-03-06T09:39:08.017Z,54.38
2018-03-06T09:41:34.304Z,54.89
2018-03-06T09:44:00.615Z,54.88
2018-03-06T09:46:26.908Z,55.04
2018-03-06T09:48:53.175Z,55.38
2018-03-06T09:51:19.433Z,55.18
2018-03-06T09:53:45.724Z,55.62
2018-03-06T09:56:12.718Z,56.24
2018-03-06T09:58:39.051Z,57.21
2018-03-06T10:01:05.754Z,57.28
2018-03-06T10:03:32.044Z,57.10
2018-03-06T10:05:58.291Z,57.11
2018-03-06T10:08:25.344Z,58.37
2018-03-06T10:10:51.633Z,59.05
2018-03-06T10:13:17.904Z,59.51
2018-03-06T10:15:44.946Z,58.70
2018-03-06T10:18:11.980Z,58.61
2018-03-06T10:20:38.220Z,58.63
2018-03-06T10:23:04.498Z,58.99
2018-03-06T10:25:30.865Z,58.48
2018-03-06T10:27:57.129Z,58.42
2018-03-06T10:30:24.138Z,59.00
2018-03-06T10:32:50.402Z,59.78
2018-03-06T10:35:17.436Z,59.62
2018-03-06T10:37:43.750Z,60.04
2018-03-06T10:40:10.075Z,59.00
2018-03-06T10:42:36.346Z,58.59
2018-03-06T10:45:03.358Z,59.12
2018-03-06T10:47:29.655Z,58.48
2018-03-06T10:49:55.907Z,58.06
2018-03-06T10:52:22.183Z,57.91
2018-03-06T10:54:49.211Z,58.95
2018-03-06T10:57:15.534Z,58.81
2018-03-06T10:59:41.806Z,58.89
2018-03-06T11:02:14.047Z,58.79
2018-03-06T11:04:40.309Z,59.69
2018-03-06T11:07:06.625Z,60.25
2018-03-06T11:09:32.966Z,60.67
2018-03-06T11:11:59.240Z,58.77
2018-03-06T11:14:25.686Z,58.37
2018-03-06T11:16:51.939Z,58.32
2018-03-06T11:19:18.943Z,58.02
2018-03-06T11:21:45.233Z,57.74
2018-03-06T11:24:11.554Z,58.67
2018-03-06T11:26:38.549Z,58.44
2018-03-06T11:29:04.822Z,58.37
2018-03-06T11:31:31.851Z,58.40
2018-03-06T11:33:58.179Z,58.14
2018-03-06T11:36:24.620Z,58.45
2018-03-06T11:38:50.884Z,58.45
2018-03-06T11:41:17.169Z,58.09
2018-03-06T11:43:43.474Z,58.53
2018-03-06T11:46:09.777Z,57.72
2018-03-06T11:48:36.043Z,57.11
2018-03-06T11:51:02.297Z,56.52
2018-03-06T11:53:28.582Z,55.99
2018-03-06T11:55:54.953Z,56.56
2018-03-06T11:58:21.252Z,57.10
2018-03-06T12:00:47.854Z,57.31
2018-03-06T12:03:14.185Z,57.85
2018-03-06T12:05:41.166Z,57.28
2018-03-06T12:08:07.417Z,57.24
2018-03-06T12:10:33.733Z,56.90
2018-03-06T12:12:59.996Z,57.03
2018-03-06T12:15:26.282Z,56.10
2018-03-06T12:17:52.539Z,55.79
2018-03-06T12:20:18.806Z,54.97
2018-03-06T12:22:45.849Z,53.74
2018-03-06T12:25:12.874Z,54.97
2018-03-06T12:27:39.100Z,53.29
2018-03-06T12:30:05.366Z,53.23
2018-03-06T12:32:32.345Z,53.25
2018-03-06T12:34:58.587Z,52.62
2018-03-06T12:37:24.883Z,52.72
2018-03-06T12:39:51.174Z,53.97
2018-03-06T12:42:17.429Z,54.33
2018-03-06T12:44:44.421Z,54.33
2018-03-06T12:47:10.784Z,54.34
2018-03-06T12:49:37.072Z,54.67
2018-03-06T12:52:03.324Z,55.09
2018-03-06T12:54:30.314Z,54.92
2018-03-06T12:56:57.302Z,55.90
2018-03-06T12:59:23.580Z,55.38
2018-03-06T13:01:50.590Z,54.87
2018-03-06T13:04:17.569Z,55.55
2018-03-06T13:06:43.840Z,55.53
2018-03-06T13:09:10.117Z,55.46
2018-03-06T13:11:36.417Z,55.94
2018-03-06T13:14:02.747Z,56.63
2018-03-06T13:16:29.008Z,56.13
2018-03-06T13:18:55.296Z,56.36
2018-03-06T13:21:21.581Z,56.59
2018-03-06T13:23:48.592Z,57.20
2018-03-06T13:26:14.842Z,56.96
2018-03-06T13:28:41.083Z,57.36
2018-03-06T13:31:07.334Z,57.33
2018-03-06T13:33:34.323Z,58.62
2018-03-06T13:36:00.573Z,58.02
2018-03-06T13:38:26.888Z,58.54
2018-03-06T13:40:53.142Z,58.80
2018-03-06T13:43:19.414Z,58.85
2018-03-06T13:45:45.675Z,58.74
2018-03-06T13:48:11.946Z,58.48
2018-03-06T13:50:38.988Z,58.63
2018-03-06T13:53:06.008Z,58.90
2018-03-06T13:55:32.296Z,59.71
2018-03-06T13:57:58.542Z,59.43
2018-03-06T14:00:24.812Z,59.12
2018-03-06T14:02:51.049Z,59.46
2018-03-06T14:05:17.307Z,59.95
2018-03-06T14:07:43.541Z,60.43
2018-03-06T14:10:09.824Z,60.60
2018-03-06T14:12:36.106Z,60.71
2018-03-06T14:15:02.426Z,60.34
2018-03-06T14:17:28.699Z,60.31
2018-03-06T14:19:54.995Z,60.58
2018-03-06T14:22:21.272Z,60.76
2018-03-06T14:24:47.519Z,60.52
2018-03-06T14:27:13.777Z,60.67
2018-03-06T14:29:40.052Z,61.01
2018-03-06T14:32:06.329Z,61.16
2018-03-06T14:34:33.360Z,61.10
2018-03-06T14:37:01.044Z,60.86
2018-03-06T14:39:27.343Z,60.74
2018-03-06T14:41:53.718Z,60.20
2018-03-06T14:44:20.034Z,60.94
2018-03-06T14:46:47.027Z,61.11
2018-03-06T14:49:13.322Z,61.18
2018-03-06T14:51:39.647Z,60.49
2018-03-06T14:54:05.931Z,61.31
2018-03-06T14:56:32.244Z,61.56
2018-03-06T14:58:58.588Z,61.08
2018-03-06T15:01:24.862Z,61.21
2018-03-06T15:03:51.996Z,62.03
2018-03-06T15:06:19.067Z,61.25
2018-03-06T15:08:45.411Z,61.30
2018-03-06T15:11:11.721Z,61.21
2018-03-06T15:13:38.795Z,61.91
2018-03-06T15:16:05.163Z,62.15
2018-03-06T15:18:31.477Z,62.57
2018-03-06T15:21:02.610Z,62.29
2018-03-06T15:23:28.907Z,61.78
2018-03-06T15:25:55.955Z,61.83
2018-03-06T15:28:23.001Z,62.31
2018-03-06T15:30:58.554Z,62.57
2018-03-06T15:33:24.981Z,62.69
2018-03-06T15:35:52.029Z,61.78
2018-03-06T15:38:32.942Z,62.38
2018-03-06T15:40:59.235Z,62.70
2018-03-06T15:43:26.323Z,63.20
2018-03-06T15:45:52.748Z,63.78
2018-03-06T15:48:19.102Z,63.14
2018-03-06T15:50:45.403Z,63.87
2018-03-06T15:53:11.743Z,63.55
2018-03-06T15:55:38.072Z,63.00
2018-03-06T15:58:04.367Z,63.29
2018-03-06T16:00:31.452Z,64.06
2018-03-06T16:02:57.776Z,64.37
2018-03-06T16:05:24.134Z,64.58
2018-03-06T16:07:50.456Z,64.45
2018-03-06T16:10:17.866Z,64.35
2018-03-06T16:12:44.903Z,64.51
2018-03-06T16:15:11.195Z,64.61
2018-03-06T16:17:37.525Z,64.15
2018-03-06T16:20:03.809Z,65.04
2018-03-06T16:22:30.820Z,64.86
2018-03-06T16:24:57.253Z,64.99
2018-03-06T16:27:24.427Z,65.30
2018-03-06T16:29:50.709Z,65.50
2018-03-06T16:32:17.041Z,66.11
2018-03-06T16:34:43.308Z,65.81
2018-03-06T16:37:09.667Z,65.38
2018-03-06T16:39:36.805Z,65.66
2018-03-06T16:42:03.845Z,65.93
2018-03-06T16:44:30.177Z,65.97
2018-03-06T16:46:56.438Z,65.83
2018-03-06T16:49:22.776Z,65.99
2018-03-06T16:51:49.036Z,65.34
2018-03-06T16:54:16.170Z,64.87
2018-03-06T16:56:57.515Z,65.26
2018-03-06T16:59:25.944Z,65.69
2018-03-06T17:01:52.250Z,65.75
2018-03-06T17:04:18.561Z,65.83
2018-03-06T17:06:45.661Z,65.76
2018-03-06T17:09:12.707Z,65.73
2018-03-06T17:11:38.960Z,65.87
2018-03-06T17:14:05.205Z,65.92
2018-03-06T17:16:32.237Z,66.09
2018-03-06T17:18:58.515Z,66.16
2018-03-06T17:21:24.857Z,66.58
2018-03-06T17:23:51.206Z,66.69
2018-03-06T17:26:17.504Z,66.77
2018-03-06T17:28:43.847Z,66.36
2018-03-06T17:31:10.189Z,66.26
2018-03-06T17:33:36.471Z,66.67
2018-03-06T17:36:03.550Z,66.56
2018-03-06T17:38:29.907Z,66.31
2018-03-06T17:40:56.192Z,66.14
2018-03-06T17:43:23.237Z,66.49
2018-03-06T17:45:50.266Z,66.62
2018-03-06T17:48:16.641Z,66.78
2018-03-06T17:50:42.985Z,66.34
2018-03-06T17:53:09.257Z,66.78
2018-03-06T17:55:35.516Z,67.22
2018-03-06T17:58:02.568Z,67.20
2018-03-06T18:00:28.883Z,66.96
2018-03-06T18:02:55.904Z,66.98
2018-03-06T18:05:22.233Z,67.15
2018-03-06T18:07:48.515Z,66.60
2018-03-06T18:10:14.919Z,66.34
2018-03-06T18:12:41.222Z,66.76
2018-03-06T18:15:09.119Z,67.03
2018-03-06T18:17:36.290Z,67.09
2018-03-06T18:20:02.530Z,66.88
2018-03-06T18:22:28.837Z,67.04
2018-03-06T18:24:56.936Z,66.86
2018-03-06T18:27:23.214Z,66.84
2018-03-06T18:29:49.632Z,66.75
2018-03-06T18:32:15.912Z,66.86
2018-03-06T18:34:42.938Z,66.79
2018-03-06T18:37:09.317Z,66.59
2018-03-06T18:39:41.489Z,66.59
2018-03-06T18:42:20.482Z,66.62
2018-03-06T18:44:46.813Z,67.00
2018-03-06T18:47:13.830Z,66.80
2018-03-06T18:50:05.341Z,66.48
2018-03-06T18:52:32.539Z,66.55
2018-03-06T18:54:58.844Z,67.24
2018-03-06T18:57:25.078Z,66.97
2018-03-06T19:03:11.134Z,67.24
2018-03-06T19:09:00.084Z,67.14
2018-03-06T19:11:27.119Z,67.08
2018-03-06T19:13:53.427Z,66.80
2018-03-06T19:16:19.693Z,66.78
2018-03-06T19:18:46.716Z,66.59
2018-03-06T19:21:13.183Z,66.32
2018-03-06T19:23:40.261Z,66.85
2018-03-06T19:26:07.511Z,67.00
2018-03-06T19:28:34.278Z,66.72
2018-03-06T19:31:00.581Z,66.86
2018-03-06T19:33:26.912Z,66.93
2018-03-06T19:35:53.306Z,66.58
2018-03-06T19:38:19.598Z,66.71
2018-03-06T19:40:45.993Z,67.03
2018-03-06T19:43:14.020Z,66.74
2018-03-06T19:45:40.350Z,66.56
2018-03-06T19:48:06.687Z,66.49
2018-03-06T19:50:33.063Z,66.65
2018-03-06T19:52:59.471Z,66.98
2018-03-06T19:55:27.467Z,67.29
2018-03-06T19:57:53.849Z,67.29
2018-03-06T20:00:20.309Z,67.31
2018-03-06T20:02:47.358Z,67.42
2018-03-06T20:05:14.377Z,66.87
2018-03-06T20:07:40.777Z,66.63
2018-03-06T20:10:07.142Z,66.31
2018-03-06T20:12:33.576Z,66.98
2018-03-06T20:15:06.117Z,67.68
2018-03-06T20:17:32.399Z,67.26
2018-03-06T20:19:58.755Z,67.72
2018-03-06T20:22:25.833Z,67.71
2018-03-06T20:24:58.242Z,67.08
2018-03-06T20:27:24.662Z,67.69
2018-03-06T20:29:51.042Z,68.37
2018-03-06T20:32:24.149Z,68.61
2018-03-06T20:34:50.498Z,68.60
2018-03-06T20:37:16.744Z,68.48
2018-03-06T20:39:49.314Z,68.70
2018-03-06T20:42:15.675Z,68.26
2018-03-06T20:44:42.780Z,68.11
2018-03-06T20:47:15.162Z,68.03
2018-03-06T20:49:41.545Z,68.57
2018-03-06T20:52:07.860Z,68.70
2018-03-06T20:54:40.279Z,68.61
2018-03-06T20:57:06.677Z,68.65
2018-03-06T20:59:32.980Z,68.66
2018-03-06T21:01:59.322Z,68.75
2018-03-06T21:04:25.696Z,68.89
2018-03-06T21:06:52.736Z,68.72
2018-03-06T21:09:19.774Z,68.19
2018-03-06T21:11:46.795Z,69.13
2018-03-06T21:14:13.797Z,68.84
2018-03-06T21:16:40.088Z,69.09
2018-03-06T21:19:06.355Z,69.06
2018-03-06T21:21:32.668Z,68.96
2018-03-06T21:23:58.976Z,68.67
2018-03-06T21:26:25.288Z,68.94
2018-03-06T21:28:52.402Z,68.76
2018-03-06T21:31:18.748Z,68.50
2018-03-06T21:33:45.040Z,68.60
2018-03-06T21:36:12.065Z,68.48
2018-03-06T21:38:38.470Z,68.44
2018-03-06T21:41:04.872Z,68.56
2018-03-06T21:43:31.238Z,68.23
2018-03-06T21:45:57.583Z,68.19
2018-03-06T21:48:23.965Z,68.36
2018-03-06T21:50:50.251Z,68.64
2018-03-06T21:53:16.630Z,69.09
2018-03-06T21:55:42.999Z,69.14
2018-03-06T21:58:09.270Z,69.50
2018-03-06T22:00:36.276Z,69.91
2018-03-06T22:03:02.559Z,70.01
2018-03-06T22:05:29.589Z,69.73
2018-03-06T22:07:55.954Z,69.32
2018-03-06T22:10:22.296Z,69.15
2018-03-06T22:12:48.560Z,69.41
2018-03-06T22:15:14.836Z,69.82
2018-03-06T22:17:41.184Z,70.08
2018-03-06T22:20:07.503Z,69.73
2018-03-06T22:22:33.830Z,69.75
2018-03-06T22:25:00.839Z,69.62
2018-03-06T22:27:27.112Z,69.37
2018-03-06T22:29:53.415Z,69.43
2018-03-06T22:32:20.435Z,69.22
2018-03-06T22:34:46.725Z,69.02
2018-03-06T22:37:13.012Z,68.89
2018-03-06T22:39:39.344Z,68.90
2018-03-06T22:42:05.637Z,69.19
2018-03-06T22:44:31.887Z,69.53
2018-03-06T22:46:58.204Z,69.65
2018-03-06T22:49:24.443Z,69.57
2018-03-06T22:51:50.733Z,69.19
2018-03-06T22:54:16.981Z,68.88
2018-03-06T22:56:43.265Z,68.76
2018-03-06T22:59:10.233Z,68.97
2018-03-06T23:01:36.489Z,68.99
2018-03-06T23:04:02.737Z,68.86
2018-03-06T23:06:29.041Z,68.88
2018-03-06T23:08:55.303Z,68.89
2018-03-06T23:11:21.602Z,68.53
2018-03-06T23:13:47.868Z,68.18
2018-03-06T23:16:14.106Z,68.38
2018-03-06T23:18:40.336Z,68.74
2018-03-06T23:21:07.332Z,68.79
2018-03-06T23:23:33.601Z,69.16
2018-03-06T23:25:59.872Z,69.09
2018-03-06T23:28:26.852Z,69.14
2018-03-06T23:30:53.087Z,69.35
2018-03-06T23:33:19.312Z,69.31
2018-03-06T23:35:45.581Z,69.22
2018-03-06T23:38:11.846Z,69.35
2018-03-06T23:40:38.094Z,69.37
2018-03-06T23:43:04.374Z,69.37
2018-03-06T23:45:30.635Z,69.25
2018-03-06T23:47:56.864Z,69.24
2018-03-06T23:50:23.156Z,69.65
2018-03-06T23:52:49.401Z,69.57
2018-03-06T23:55:16.361Z,69.53
2018-03-06T23:57:43.367Z,69.27
